Tiempo atmosférico en la estación meteorológica de Ainsa, Huesca (610 m.)



Fecha
DESCASC
Temp. máxima en grados centígrados (hora)
DESCASC
Temp. mínima en grados centígrados (hora)
DESCASC
Temp. media en grados centígrados
DESCASC
Racha de viento máxima en m/sg (hora)
DESCASC
Velocidad máxima media en intervalos de 10 minutos(hora)
DESCASC
Precipitaciones diarias en mm
DESCASC
Precipitaciones de 00:00 a 06:00 en mm
DESCASC
Precipitaciones de 06:00 a 12:00 en mm
DESCASC
Precipitaciones de 12:00 a 18:00 en mm
DESCASC
Precipitaciones de 18:00 a 24:00 en mm
DESCASC
22-11-2020 13.7 (15:50) -1.8 (07:30) 5.9 4.17 (22:20) 3.06 (00:40) 0 0 0 0 0
21-11-2020 14.6 (15:50) -1.6 (08:30) 6.5 4.72 (12:40) 3.89 (12:20) 0 0 0 0 0
20-11-2020 15.6 (13:50) 2.2 (07:00) 8.9 9.72 (11:30) 6.67 (11:30) 0 0 0 0 0
19-11-2020 17.8 (15:00) 4.3 (00:00) 11 15 (18:10) 8.06 (18:10) 0 0 0 0 0
18-11-2020 17.3 (14:50) 3.8 (00:00) 10.5 5.28 (16:00) 4.72 (16:10) 0 0 0 0 0
17-11-2020 16.6 (15:30) 4.2 (00:00) 10.4 5 (01:30) 3.89 (17:00) 0 0 0 0 0
16-11-2020 18.6 (15:20) 7.1 (00:00) 12.9 6.11 (16:10) 4.72 (16:40) 0.4 0.2 0.2 0 0
15-11-2020 15.4 (13:50) 6.3 (00:00) 10.8 4.17 (05:50) 3.33 (03:50) 0.2 0 0 0 0.2
14-11-2020 16.8 (14:50) 3.2 (00:00) 10 3.89 (18:10) 3.06 (18:10) 0 0 0 0 0
13-11-2020 17 (14:40) 5.8 (00:00) 11.4 4.44 (22:50) 3.33 (17:10) 0 0 0 0 0
12-11-2020 16.8 (14:10) 5.7 (00:00) 11.2 5.28 (17:00) 4.72 (17:00) 0 0 0 0 0
11-11-2020 17 (14:20) 3.9 (00:00) 10.5 5.28 (16:00) 4.72 (16:10) 0 0 0 0 0
10-11-2020 17.4 (14:50) 4.9 (00:00) 11.1 5.83 (16:50) 5 (16:50) 0 0 0 0 0
09-11-2020 17.4 (14:50) 5 (00:00) 11.2 4.17 (15:10) 3.61 (15:20) 0 0 0 0 0
08-11-2020 16.8 (13:40) 7.7 (00:00) 12.2 5 (21:20) 3.33 (21:20) 0 0 0 0 0
07-11-2020 13.4 (11:50) 11.1 (00:00) 12.3 11.11 (11:20) 5 (09:50) 24.8 0.4 18.6 2.6 3.2
06-11-2020 16.6 (15:10) 10.6 (00:00) 13.6 4.17 (22:40) 2.78 (22:40) 2.2 2.2 0 0 0
05-11-2020 17.6 (14:40) 6.1 (00:00) 11.9 4.17 (19:50) 2.78 (01:20) 0 0 0 0 0
04-11-2020 11.1 (00:00) 7.7 (00:00) 9.4 4.44 (07:50) 3.06 (07:50) 27.2 18.6 8.4 0.2 0
03-11-2020 13.5 (15:10) 10.2 (00:00) 11.8 5 (19:40) 3.61 (19:40) 2.2 0 0 1.4 0.8
02-11-2020 23.1 (14:40) 8 (00:00) 15.6 4.72 (16:50) 3.89 (17:10) 0 0 0 0 0
01-11-2020 21.4 (15:50) 5.6 (00:00) 13.5 4.72 (05:40) 3.33 (21:20) 0 0 0 0 0
31-10-2020 22.6 (16:30) 4.8 (00:00) 13.7 4.72 (18:50) 3.33 (18:50) 0 0 0 0 0
30-10-2020 21.7 (16:00) 5.3 (00:00) 13.5 5.28 (18:20) 3.61 (18:30) 0 0 0 0 0
29-10-2020 19 (14:50) 5.8 (00:00) 12.4 5.28 (17:10) 4.17 (17:10) 0 0 0 0 0
28-10-2020 19.1 (16:50) 5 (00:00) 12.1 5.83 (15:10) 4.72 (15:10) 0 0 0 0 0
27-10-2020 15.9 (15:30) 1.9 (00:00) 8.9 5.83 (15:00) 4.17 (15:10) 0 0 0 0 0

Gráficas

Temp. máximas Temp. mínimas Temp. medias Precipitaciones Rachas de viento máximas Velocidades máximas media en intervalos de 10 minutos

Datos horarios

Fecha y hora oficial Temperatura (ºC) Velocidad del viento (km/h) Dirección del viento Racha (km/h) Dirección de racha Precipitación (mm) Presión (hPa) Tendencia (hPa) Humedad (%)
2020-11-25 23:00:00 7.9 10 Norte 15 Norte 0 -- -- 84
2020-11-25 22:00:00 8.3 10 Norte 14 Norte 0 -- -- 82
2020-11-25 21:00:00 8.9 8 Norte 16 Norte 0 -- -- 79
2020-11-25 20:00:00 9.4 7 Noroeste 15 Norte 0 -- -- 78
2020-11-25 19:00:00 9.9 10 Norte 14 Norte 0 -- -- 75
2020-11-25 18:00:00 10.6 9 Norte 13 Norte 0 -- -- 72
2020-11-25 17:00:00 11.7 4 Sudoeste 7 Norte 0 -- -- 65
2020-11-25 16:00:00 12.6 4 Sudeste 6 Sudeste 0 -- -- 64
2020-11-25 15:00:00 12.5 2 Norte 8 Sudeste 0 -- -- 62
2020-11-25 14:00:00 13 3 Norte 9 Sudoeste 0 -- -- 59
2020-11-25 13:00:00 11.9 6 Sudoeste 10 Oeste 0 -- -- 64
2020-11-25 12:00:00 9.3 5 Sudeste 8 Sur 0 -- -- 70
2020-11-25 11:00:00 6 8 Oeste 12 Oeste 0 -- -- 79
2020-11-25 10:00:00 3.2 4 Oeste 9 Noroeste 0 -- -- 91
2020-11-25 09:00:00 1.3 4 Noroeste 12 Norte 0 -- -- 92
2020-11-25 08:00:00 1 8 Noroeste 12 Noroeste 0 -- -- 93
2020-11-25 07:00:00 0 6 Norte 12 Norte 0 -- -- 95
2020-11-25 06:00:00 1 8 Oeste 11 Noroeste 0 -- -- 93
2020-11-25 05:00:00 0.6 8 Norte 11 Norte 0 -- -- 93
2020-11-25 04:00:00 1.2 5 Noroeste 9 Noroeste 0 -- -- 93
2020-11-25 03:00:00 1.6 6 Oeste 12 Noroeste 0 -- -- 92
2020-11-25 02:00:00 2.1 8 Noroeste 14 Noroeste 0 -- -- 90
2020-11-25 01:00:00 2.1 6 Noroeste 14 Noroeste 0 -- -- 92
2020-11-25 00:00:00 3.1 6 Noroeste 14 Noroeste 0 -- -- 88
2020-11-24 23:00:00 3.4 8 Noroeste 15 Noroeste 0 -- -- 87
2020-11-24 22:00:00 4.1 7 Noroeste 12 Noroeste 0 -- -- 85
2020-11-24 21:00:00 4.8 9 Noroeste 12 Noroeste 0 -- -- 82
2020-11-24 20:00:00 5.8 9 Noroeste 12 Noroeste 0 -- -- 79
2020-11-24 19:00:00 7.3 6 Noroeste 14 Noroeste 0 -- -- 74
2020-11-24 18:00:00 9 6 Noroeste 10 Norte 0 -- -- 69
2020-11-24 17:00:00 11.2 5 Nordeste 12 Sudeste 0 -- -- 59
2020-11-24 16:00:00 12.3 10 Sudeste 13 Sudeste 0 -- -- 54
2020-11-24 15:00:00 14 8 Sudeste 11 Sudeste 0 -- -- 47
2020-11-24 14:00:00 13.2 8 Sudeste 10 Sudeste 0 -- -- 50
2020-11-24 13:00:00 11.2 3 Este 7 Este 0 -- -- 57
2020-11-24 12:00:00 8.7 4 Sudeste 6 Sudeste 0 -- -- 67
2020-11-24 11:00:00 5.6 3 Sudeste 5 Sudoeste 0 -- -- 83
2020-11-24 10:00:00 2.6 3 Oeste 13 Norte 0 -- -- 93
2020-11-24 09:00:00 0.5 4 Oeste 12 Noroeste 0 -- -- 99
2020-11-24 08:00:00 -0.1 8 Noroeste 11 Noroeste 0 -- -- 98
2020-11-24 07:00:00 0 9 Norte 10 Norte 0 -- -- 98
2020-11-24 06:00:00 0.4 5 Norte 9 Noroeste 0 -- -- 98
2020-11-24 05:00:00 0.5 8 Noroeste 10 Noroeste 0 -- -- 96
2020-11-24 04:00:00 1.2 7 Norte 13 Norte 0 -- -- 96
2020-11-24 03:00:00 1.5 9 Noroeste 13 Noroeste 0 -- -- 96
2020-11-24 02:00:00 1.6 7 Noroeste 14 Noroeste 0 -- -- 95
2020-11-24 01:00:00 2.2 6 Noroeste 11 Noroeste 0 -- -- 94
2020-11-24 00:00:00 2.7 6 Noroeste 13 Norte 0 -- -- 93
2020-11-23 23:00:00 3.6 8 Noroeste 15 Noroeste 0 -- -- 90
2020-11-23 22:00:00 4.3 7 Noroeste 15 Noroeste 0 -- -- 88
2020-11-23 21:00:00 4.9 6 Noroeste 13 Norte 0 -- -- 86
2020-11-23 20:00:00 5.7 8 Noroeste 11 Oeste 0 -- -- 83
2020-11-23 19:00:00 7.2 4 Oeste 12 Noroeste 0 -- -- 78
2020-11-23 18:00:00 9.1 7 Noroeste 9 Noroeste 0 -- -- 71
2020-11-23 17:00:00 12.6 6 Sudeste 8 Sudeste 0 -- -- 54
2020-11-23 16:00:00 13.7 5 Sudeste 7 Sudeste 0 -- -- 51
2020-11-23 15:00:00 13.9 4 Sudeste 9 Sudeste 0 -- -- 52
2020-11-23 14:00:00 12.5 6 Sudeste 8 Sudeste 0 -- -- 55
2020-11-23 13:00:00 11 4 Este 8 Sur 0 -- -- 58
2020-11-23 12:00:00 8.1 3 Este 8 Sudeste 0 -- -- 67
2020-11-23 11:00:00 5.7 4 Sudeste 7 Sudeste 0 -- -- 79
2020-11-23 10:00:00 2.1 2 Noroeste 6 Noroeste 0 -- -- 92
2020-11-23 09:00:00 0.2 2 Oeste 10 Noroeste 0 -- -- 97
2020-11-23 08:00:00 -0.8 7 Norte 12 Noroeste 0 -- -- 97
2020-11-23 07:00:00 -1.1 4 Noroeste 7 Norte 0 -- -- 97
2020-11-23 06:00:00 -0.4 5 Noroeste 13 Norte 0 -- -- 97
2020-11-23 05:00:00 -0.1 9 Noroeste 12 Norte 0 -- -- 97
2020-11-23 04:00:00 0.3 6 Noroeste 10 Norte 0 -- -- 94
2020-11-23 03:00:00 0.8 7 Noroeste 10 Noroeste 0 -- -- 93
2020-11-23 02:00:00 1.3 8 Noroeste 10 Noroeste 0 -- -- 94
2020-11-23 01:00:00 1.7 6 Noroeste 12 Noroeste 0 -- -- 91
2020-11-23 00:00:00 2.5 4 Noroeste 9 Noroeste 0 -- -- 90
2020-11-22 23:00:00 2.9 7 Noroeste 15 Noroeste 0 -- -- 87
2020-11-22 22:00:00 3.1 9 Norte 14 Noroeste 0 -- -- 87
2020-11-22 21:00:00 4.3 7 Noroeste 15 Noroeste 0 -- -- 83
2020-11-22 20:00:00 5 6 Oeste 13 Oeste 0 -- -- 79
2020-11-22 19:00:00 6.7 6 Oeste 12 Noroeste 0 -- -- 73
2020-11-22 18:00:00 8.7 6 Noroeste 10 Sudeste 0 -- -- 66
2020-11-22 17:00:00 12.8 7 Sudeste 9 Sudeste 0 -- -- 50
2020-11-22 16:00:00 13.7 5 Sudeste 9 Sudeste 0 -- -- 49
2020-11-22 15:00:00 13.2 6 Sudeste 8 Sudeste 0 -- -- 48
2020-11-22 14:00:00 12.6 3 Sudeste 8 Sudeste 0 -- -- 48
2020-11-22 13:00:00 10.8 4 Sudeste 7 Sudeste 0 -- -- 49
2020-11-22 12:00:00 8 4 Este 8 Sur 0 -- -- 58
2020-11-22 11:00:00 5 4 Sudeste 9 Sudeste 0 -- -- 70
2020-11-22 10:00:00 2.5 3 Sudeste 7 Sudeste 0 -- -- 85
2020-11-22 09:00:00 -0.6 5 Norte 13 Norte 0 -- -- 93
2020-11-22 08:00:00 -1.4 9 Norte 12 Norte 0 -- -- 95
2020-11-22 07:00:00 -1.1 3 Oeste 9 Norte 0 -- -- 95
2020-11-22 06:00:00 -1.4 7 Norte 8 Norte 0 -- -- 94
2020-11-22 05:00:00 -0.4 4 Noroeste 10 Noroeste 0 -- -- 91
2020-11-22 04:00:00 -0.3 5 Noroeste 12 Norte 0 -- -- 92
2020-11-22 03:00:00 -0.1 6 Noroeste 10 Noroeste 0 -- -- 91
2020-11-22 02:00:00 0.2 4 Noroeste 10 Noroeste 0 -- -- 89
2020-11-22 01:00:00 1.2 9 Noroeste 14 Noroeste 0 -- -- 85
2020-11-22 00:00:00 1.5 9 Noroeste 14 Oeste 0 -- -- 84
2020-11-21 23:00:00 1.9 9 Noroeste 13 Noroeste 0 -- -- 84
2020-11-21 22:00:00 2.4 6 Noroeste 14 Norte 0 -- -- 83
2020-11-21 21:00:00 4 7 Noroeste 9 Noroeste 0 -- -- 75
2020-11-21 20:00:00 4.8 6 Noroeste 10 Noroeste 0 -- -- 71
2020-11-21 19:00:00 6.6 8 Noroeste 10 Noroeste 0 -- -- 63
2020-11-21 18:00:00 8.6 5 Noroeste 15 Norte 0 -- -- 55
2020-11-21 17:00:00 13.5 6 Sudeste 9 Sudeste 0 -- -- 38
2020-11-21 16:00:00 14.6 2 Noroeste 5 Oeste 0 -- -- 43
2020-11-21 15:00:00 14 2 Este 6 Sudeste 0 -- -- 40
2020-11-21 14:00:00 12.7 3 Sudeste 10 Sudeste 0 -- -- 42
2020-11-21 13:00:00 10.5 11 Sudeste 17 Sudeste 0 -- -- 50
2020-11-21 12:00:00 8.6 9 Sudeste 11 Sudeste 0 -- -- 57
2020-11-21 11:00:00 5.8 3 Sudoeste 8 Sudeste 0 -- -- 72
2020-11-21 10:00:00 3.2 4 Sudeste 8 Este 0 -- -- 78
2020-11-21 09:00:00 -0.8 5 Noroeste 13 Norte 0 -- -- 89
2020-11-21 08:00:00 -1.2 4 Noroeste 8 Oeste 0 -- -- 89
2020-11-21 07:00:00 -1.2 4 Noroeste 10 Norte 0 -- -- 90
2020-11-21 06:00:00 -0.1 6 Noroeste 10 Noroeste 0 -- -- 84
2020-11-21 05:00:00 0.1 5 Noroeste 11 Noroeste 0 -- -- 83
2020-11-21 04:00:00 0.7 7 Noroeste 12 Noroeste 0 -- -- 81
2020-11-21 03:00:00 1.8 6 Noroeste 9 Norte 0 -- -- 77
2020-11-21 02:00:00 1.8 8 Norte 15 Noroeste 0 -- -- 80
2020-11-21 01:00:00 2.2 6 Noroeste 10 Noroeste 0 -- -- 80
2020-11-21 00:00:00 3.6 4 Noroeste 10 Oeste 0 -- -- 70
2020-11-20 23:00:00 4.3 4 Noroeste 12 Oeste 0 -- -- 74
2020-11-20 22:00:00 5.5 8 Oeste 12 Noroeste 0 -- -- 64
2020-11-20 21:00:00 5.9 9 Noroeste 12 Oeste 0 -- -- 64
2020-11-20 20:00:00 6.7 9 Noroeste 16 Norte 0 -- -- 73
2020-11-20 19:00:00 8.5 9 Noroeste 14 Sudoeste 0 -- -- 67
2020-11-20 18:00:00 11 2 Sudoeste 14 Noroeste 0 -- -- 61
2020-11-20 17:00:00 13.7 11 Sudeste 19 Sudeste 0 -- -- 52
2020-11-20 16:00:00 14.5 16 Sudeste 24 Sudeste 0 -- -- 51
2020-11-20 15:00:00 15.2 17 Sudeste 27 Sudeste 0 -- -- 49
2020-11-20 14:00:00 15.4 15 Sudeste 22 Sudeste 0 -- -- 49
2020-11-20 13:00:00 14 9 Sudeste 23 Sudeste 0 -- -- 45
2020-11-20 12:00:00 11.4 16 Sudeste 35 Sudeste 0 -- -- 52
2020-11-20 11:00:00 8.1 19 Sudeste 29 Sudeste 0 -- -- 69
2020-11-20 10:00:00 4.4 14 Sur 27 Sudeste 0 -- -- 93
2020-11-20 09:00:00 2.4 13 Sur 23 Sudeste 0 -- -- 100
2020-11-20 08:00:00 2.3 11 Sudeste 20 Sudeste 0 -- -- 100
2020-11-20 07:00:00 2.2 10 Sudeste 15 Sudeste 0 -- -- 98
2020-11-20 06:00:00 2.8 6 Este 17 Sudeste 0 -- -- 97
2020-11-20 05:00:00 3.5 7 Sudeste 13 Sur 0 -- -- 94
2020-11-20 04:00:00 4.6 8 Sudeste 12 Sur 0 -- -- 88
2020-11-20 03:00:00 5 4 Este 9 Este 0 -- -- 88
2020-11-20 02:00:00 5.5 4 Sudeste 19 Oeste 0 -- -- 88
2020-11-20 01:00:00 6.3 3 Sudeste 13 Sudeste 0 -- -- 83
2020-11-20 00:00:00 7.2 7 Sudeste 11 Sudoeste 0 -- -- 82
2020-11-19 23:00:00 8.3 8 Noroeste 15 Norte 0 -- -- 73
2020-11-19 22:00:00 10 8 Norte 14 Oeste 0 -- -- 67
2020-11-19 21:00:00 11.2 14 Oeste 33 Oeste 0 -- -- 62
2020-11-19 20:00:00 13.1 23 Oeste 30 Oeste 0 -- -- 57
2020-11-19 19:00:00 15.8 19 Noroeste 54 Norte 0 -- -- 44
2020-11-19 18:00:00 15.8 22 Norte 44 Norte 0 -- -- 46
2020-11-19 17:00:00 16.4 8 Sudeste 14 Sudeste 0 -- -- 71
2020-11-19 16:00:00 17 10 Sudeste 18 Sudeste 0 -- -- 68
2020-11-19 15:00:00 17.8 13 Sudeste 18 Sudeste 0 -- -- 67
2020-11-19 14:00:00 16.9 7 Sudeste 14 Sudeste 0 -- -- 66
2020-11-19 13:00:00 15.1 7 Sudeste 9 Sudeste 0 -- -- 71
2020-11-19 12:00:00 13.1 5 Este 10 Este 0 -- -- 74
2020-11-19 11:00:00 10.2 5 Sudeste 10 Sudeste 0 -- -- 84
2020-11-19 10:00:00 7.5 0 Calma 8 Sudoeste 0 -- -- 97
2020-11-19 09:00:00 5.7 4 Norte 8 Norte 0 -- -- 100
2020-11-19 08:00:00 4.4 5 Noroeste 8 Norte 0 -- -- 100
2020-11-19 07:00:00 5 4 Norte 8 Noroeste 0 -- -- 99
2020-11-19 06:00:00 5.5 5 Norte 8 Noroeste 0 -- -- 98
2020-11-19 05:00:00 5.8 4 Noroeste 9 Norte 0 -- -- 97
2020-11-19 04:00:00 6.3 5 Noroeste 14 Noroeste 0 -- -- 98
2020-11-19 03:00:00 6 8 Norte 12 Norte 0 -- -- 98
2020-11-19 02:00:00 6.9 5 Noroeste 13 Noroeste 0 -- -- 98
2020-11-19 01:00:00 7.2 6 Noroeste 14 Noroeste 0 -- -- 95
2020-11-19 00:00:00 7.6 9 Noroeste 15 Noroeste 0 -- -- 98
2020-11-18 23:00:00 7.5 9 Noroeste 13 Norte 0 -- -- 97
2020-11-18 22:00:00 8.8 6 Noroeste 13 Noroeste 0 -- -- 93
2020-11-18 21:00:00 9.1 8 Noroeste 11 Oeste 0 -- -- 93
2020-11-18 20:00:00 10 7 Noroeste 11 Noroeste 0 -- -- 91
2020-11-18 19:00:00 11.6 8 Norte 10 Norte 0 -- -- 86
2020-11-18 18:00:00 12.9 7 Sudeste 15 Sudeste 0 -- -- 81
2020-11-18 17:00:00 15.3 13 Sudeste 19 Sudeste 0 -- -- 71
2020-11-18 16:00:00 16.2 16 Sudeste 19 Sudeste 0 -- -- 67
2020-11-18 15:00:00 17.2 13 Sudeste 16 Sudeste 0 -- -- 64
2020-11-18 14:00:00 16.6 11 Sudeste 15 Sudeste 0 -- -- 61
2020-11-18 13:00:00 15.4 4 Sudeste 8 Este 0 -- -- 66
2020-11-18 12:00:00 13.4 4 Sur 6 Sur 0 -- -- 74
2020-11-18 11:00:00 9.8 3 Este 9 Sudeste 0 -- -- 85
2020-11-18 10:00:00 7.7 2 Sur 7 Noroeste 0 -- -- 95
2020-11-18 09:00:00 5.1 6 Noroeste 10 Norte 0 -- -- 100
2020-11-18 08:00:00 3.9 4 Noroeste 12 Norte 0 -- -- 99
2020-11-18 07:00:00 4.7 8 Noroeste 12 Norte 0 -- -- 99
2020-11-18 06:00:00 5.1 4 Noroeste 9 Norte 0 -- -- 100
2020-11-18 05:00:00 5.5 4 Oeste 9 Noroeste 0 -- -- 100
2020-11-18 04:00:00 5.3 7 Noroeste 9 Noroeste 0 -- -- 99
2020-11-18 03:00:00 5.7 6 Norte 10 Norte 0 -- -- 99
2020-11-18 02:00:00 6.4 3 Noroeste 9 Noroeste 0 -- -- 96
2020-11-18 01:00:00 6.3 6 Noroeste 12 Norte 0 -- -- 98
2020-11-18 00:00:00 7.3 6 Noroeste 12 Norte 0 -- -- 95
2020-11-17 23:00:00 7.5 8 Noroeste 14 Noroeste 0 -- -- 96
2020-11-17 22:00:00 8.5 5 Noroeste 14 Norte 0 -- -- 93
2020-11-17 21:00:00 8.8 6 Noroeste 12 Noroeste 0 -- -- 93
2020-11-17 20:00:00 9.7 7 Noroeste 10 Oeste 0 -- -- 89
2020-11-17 19:00:00 10.9 7 Noroeste 12 Norte 0 -- -- 86
2020-11-17 18:00:00 13.1 4 Este 14 Sudeste 0 -- -- 78
2020-11-17 17:00:00 15.3 14 Sudeste 15 Sudeste 0 -- -- 71
2020-11-17 16:00:00 16.4 10 Sudeste 13 Sudeste 0 -- -- 65
2020-11-17 15:00:00 16.1 10 Sudeste 15 Sudeste 0 -- -- 64
2020-11-17 14:00:00 16.2 8 Sudeste 11 Sudeste 0 -- -- 61
2020-11-17 13:00:00 14.6 7 Sudeste 10 Sudeste 0 -- -- 64
2020-11-17 12:00:00 12.8 5 Este 9 Este 0 -- -- 70
2020-11-17 11:00:00 10.5 5 Sudeste 9 Este 0 -- -- 78
2020-11-17 10:00:00 7.6 3 Oeste 9 Norte 0 -- -- 90
2020-11-17 09:00:00 5.1 5 Noroeste 10 Norte 0 -- -- 98
2020-11-17 08:00:00 4.5 8 Noroeste 10 Norte 0 -- -- 98
2020-11-17 07:00:00 4.9 4 Norte 9 Noroeste 0 -- -- 95
2020-11-17 06:00:00 5.4 8 Noroeste 10 Noroeste 0 -- -- 95
2020-11-17 05:00:00 5.9 4 Oeste 10 Noroeste 0 -- -- 95
2020-11-17 04:00:00 5.9 6 Noroeste 13 Noroeste 0 -- -- 95
2020-11-17 03:00:00 6.3 6 Noroeste 14 Norte 0 -- -- 94
2020-11-17 02:00:00 7 6 Noroeste 18 Norte 0 -- -- 93
2020-11-17 01:00:00 7.1 9 Noroeste 17 Noroeste 0 -- -- 93
2020-11-17 00:00:00 7.1 9 Noroeste 14 Noroeste 0 -- -- 94
2020-11-16 23:00:00 8.2 6 Norte 11 Noroeste 0 -- -- 94
2020-11-16 22:00:00 9 6 Norte 10 Oeste 0 -- -- 92
2020-11-16 21:00:00 9.9 6 Noroeste 13 Noroeste 0 -- -- 90
2020-11-16 20:00:00 11 5 Noroeste 13 Oeste 0 -- -- 87
2020-11-16 19:00:00 11.9 8 Noroeste 12 Noroeste 0 -- -- 85
2020-11-16 18:00:00 14.3 3 Norte 18 Sudeste 0 -- -- 75
2020-11-16 17:00:00 15.4 14 Sudeste 22 Sudeste 0 -- -- 73
2020-11-16 16:00:00 17 14 Sudeste 18 Sudeste 0 -- -- 71
2020-11-16 15:00:00 18.4 7 Sudeste 11 Sudeste 0 -- -- 59
2020-11-16 14:00:00 18.1 3 Este 7 Sudeste 0 -- -- 62
2020-11-16 13:00:00 17.4 4 Sudeste 8 Sur 0 -- -- 65
2020-11-16 12:00:00 15.4 3 Este 9 Sudoeste 0 -- -- 77
2020-11-16 11:00:00 12.4 3 Este 9 Noroeste 0 -- -- 98
2020-11-16 10:00:00 9.7 3 Noroeste 10 Noroeste 0 -- -- 100
2020-11-16 09:00:00 8.8 2 Norte 12 Noroeste 0 -- -- 100
2020-11-16 08:00:00 9.3 3 Noroeste 9 Oeste 0.2 -- -- 100
2020-11-16 07:00:00 9.6 4 Oeste 8 Oeste 0 -- -- 100
2020-11-16 06:00:00 9.7 5 Noroeste 8 Oeste 0 -- -- 100
2020-11-16 05:00:00 10.4 3 Noroeste 7 Oeste 0 -- -- 100
2020-11-16 04:00:00 10.6 3 Noroeste 8 Oeste 0 -- -- 100
2020-11-16 03:00:00 11.1 0 Calma 6 Oeste 0 -- -- 100
2020-11-16 02:00:00 11.3 3 Noroeste 6 Oeste 0 -- -- 99
2020-11-16 01:00:00 11.5 4 Noroeste 6 Norte 0.2 -- -- 99
2020-11-16 00:00:00 11.6 4 Noroeste 9 Norte 0 -- -- 98
2020-11-15 23:00:00 11.7 5 Norte 11 Noroeste 0 -- -- 97
2020-11-15 22:00:00 11.9 4 Noroeste 9 Noroeste 0 -- -- 95
2020-11-15 21:00:00 11.8 7 Noroeste 12 Noroeste 0 -- -- 95
2020-11-15 20:00:00 12.1 2 Oeste 14 Noroeste 0.2 -- -- 93
2020-11-15 19:00:00 12.8 8 Oeste 11 Oeste 0 -- -- 87
2020-11-15 18:00:00 13.2 2 Oeste 9 Oeste 0 -- -- 85
2020-11-15 17:00:00 14 2 Oeste 9 Oeste 0 -- -- 77
2020-11-15 16:00:00 14.8 3 Oeste 6 Oeste 0 -- -- 71
2020-11-15 15:00:00 14.7 4 Oeste 6 Oeste 0 -- -- 70
2020-11-15 14:00:00 15.3 3 Este 7 Sudoeste 0 -- -- 66
2020-11-15 13:00:00 14.5 4 Sudoeste 7 Norte 0 -- -- 69
2020-11-15 12:00:00 13.5 3 Sur 10 Sudeste 0 -- -- 71
2020-11-15 11:00:00 12.7 5 Sudoeste 10 Nordeste 0 -- -- 74
2020-11-15 10:00:00 9.7 3 Sudoeste 9 Noroeste 0 -- -- 87
2020-11-15 09:00:00 7.1 6 Norte 14 Norte 0 -- -- 93
2020-11-15 08:00:00 6.8 5 Noroeste 12 Noroeste 0 -- -- 95
2020-11-15 07:00:00 7.4 8 Noroeste 14 Noroeste 0 -- -- 93
2020-11-15 06:00:00 7.2 6 Noroeste 15 Norte 0 -- -- 95
2020-11-15 05:00:00 8 11 Noroeste 14 Noroeste 0 -- -- 93
2020-11-15 04:00:00 8.5 9 Noroeste 14 Norte 0 -- -- 93
2020-11-15 03:00:00 9.2 4 Noroeste 10 Noroeste 0 -- -- 93
2020-11-15 02:00:00 9.7 6 Norte 10 Norte 0 -- -- 88
2020-11-15 01:00:00 9.7 7 Norte 12 Norte 0 -- -- 89
2020-11-15 00:00:00 9.8 5 Noroeste 11 Norte 0 -- -- 92
2020-11-14 23:00:00 9.8 5 Norte 9 Norte 0 -- -- 89
2020-11-14 22:00:00 10.3 3 Norte 8 Noroeste 0 -- -- 87
2020-11-14 21:00:00 11 0 Calma 10 Noroeste 0 -- -- 85
2020-11-14 20:00:00 11.2 6 Noroeste 13 Norte 0 -- -- 83
2020-11-14 19:00:00 11.8 8 Noroeste 14 Norte 0 -- -- 81
2020-11-14 18:00:00 12.4 10 Norte 14 Noroeste 0 -- -- 78
2020-11-14 17:00:00 14.4 4 Nordeste 5 Nordeste 0 -- -- 70
2020-11-14 16:00:00 16 0 Calma 6 Sur 0 -- -- 62
2020-11-14 15:00:00 16.7 5 Sudeste 8 Sudeste 0 -- -- 57
2020-11-14 14:00:00 16.5 5 Sudeste 9 Sudeste 0 -- -- 59
2020-11-14 13:00:00 14.7 3 Este 8 Este 0 -- -- 63
2020-11-14 12:00:00 12.3 4 Oeste 10 Sudoeste 0 -- -- 72
2020-11-14 11:00:00 10.3 3 Sudoeste 7 Sudeste 0 -- -- 81
2020-11-14 10:00:00 6.9 2 Oeste 6 Sudeste 0 -- -- 90
2020-11-14 09:00:00 4.5 2 Noroeste 10 Oeste 0 -- -- 98
2020-11-14 08:00:00 3.2 6 Noroeste 10 Oeste 0 -- -- 99
2020-11-14 07:00:00 4 5 Oeste 10 Noroeste 0 -- -- 97
2020-11-14 06:00:00 4.3 5 Noroeste 12 Noroeste 0 -- -- 97
2020-11-14 05:00:00 4.3 5 Noroeste 11 Oeste 0 -- -- 97
2020-11-14 04:00:00 4.5 6 Noroeste 13 Norte 0 -- -- 98
2020-11-14 03:00:00 5 5 Oeste 10 Noroeste 0 -- -- 95
2020-11-14 02:00:00 5.2 7 Oeste 13 Norte 0 -- -- 96
2020-11-14 01:00:00 5.9 6 Oeste 10 Noroeste 0 -- -- 93
2020-11-14 00:00:00 6 6 Noroeste 10 Noroeste 0 -- -- 93
2020-11-13 23:00:00 6.6 8 Noroeste 16 Noroeste 0 -- -- 93
2020-11-13 22:00:00 7.3 7 Noroeste 14 Noroeste 0 -- -- 89
2020-11-13 21:00:00 7.9 9 Noroeste 11 Noroeste 0 -- -- 88
2020-11-13 20:00:00 8.8 8 Oeste 10 Oeste 0 -- -- 85
2020-11-13 19:00:00 10.4 7 Noroeste 12 Norte 0 -- -- 80
2020-11-13 18:00:00 12.7 6 Norte 13 Sudeste 0 -- -- 72
2020-11-13 17:00:00 15.4 11 Sudeste 14 Sudeste 0 -- -- 63
2020-11-13 16:00:00 16.5 9 Sudeste 13 Sudeste 0 -- -- 55
2020-11-13 15:00:00 16.6 12 Sudeste 14 Sudeste 0 -- -- 56
2020-11-13 14:00:00 16.3 7 Sudeste 9 Sudeste 0 -- -- 58
2020-11-13 13:00:00 15 5 Sudeste 9 Este 0 -- -- 64
2020-11-13 12:00:00 12 4 Oeste 9 Este 0 -- -- 73
2020-11-13 11:00:00 10.2 4 Este 8 Este 0 -- -- 83
2020-11-13 10:00:00 8.1 3 Sudoeste 6 Sudoeste 0 -- -- 95
2020-11-13 09:00:00 6.3 2 Noroeste 5 Noroeste 0 -- -- 96
2020-11-13 08:00:00 6.2 2 Nordeste 5 Norte 0 -- -- 95
2020-11-13 07:00:00 6 2 Norte 6 Noroeste 0 -- -- 96
2020-11-13 06:00:00 6.3 0 Calma 5 Oeste 0 -- -- 94
2020-11-13 05:00:00 6.4 2 Noroeste 8 Oeste 0 -- -- 93
2020-11-13 04:00:00 6.5 5 Noroeste 11 Oeste 0 -- -- 92
2020-11-13 03:00:00 5.9 4 Norte 5 Norte 0 -- -- 96
2020-11-13 02:00:00 6.1 3 Sudoeste 8 Noroeste 0 -- -- 92
2020-11-13 01:00:00 6.4 5 Noroeste 12 Noroeste 0 -- -- 93
2020-11-13 00:00:00 6 9 Norte 14 Norte 0 -- -- 94
2020-11-12 23:00:00 6.8 5 Noroeste 9 Noroeste 0 -- -- 92
2020-11-12 22:00:00 6.9 5 Noroeste 13 Noroeste 0 -- -- 93
2020-11-12 21:00:00 8 7 Noroeste 10 Oeste 0 -- -- 90
2020-11-12 20:00:00 8.7 6 Noroeste 9 Oeste 0 -- -- 89
2020-11-12 19:00:00 10.1 3 Sur 9 Sudeste 0 -- -- 89
2020-11-12 18:00:00 11.8 7 Este 16 Sudeste 0 -- -- 80
2020-11-12 17:00:00 14.1 17 Sudeste 19 Sudeste 0 -- -- 72
2020-11-12 16:00:00 16 14 Sudeste 15 Sudeste 0 -- -- 63
2020-11-12 15:00:00 16.8 11 Sudeste 13 Sudeste 0 -- -- 58
2020-11-12 14:00:00 16.6 8 Sudeste 10 Sudeste 0 -- -- 58
2020-11-12 13:00:00 15.3 4 Sudeste 8 Sudeste 0 -- -- 59
2020-11-12 12:00:00 13 4 Sudeste 8 Sudoeste 0 -- -- 72
2020-11-12 11:00:00 9.7 0 Calma 6 Norte 0 -- -- 88
2020-11-12 10:00:00 7.8 2 Sudoeste 9 Noroeste 0 -- -- 97
2020-11-12 09:00:00 5.7 4 Noroeste 10 Noroeste 0 -- -- 99
2020-11-12 08:00:00 6.1 5 Noroeste 10 Noroeste 0 -- -- 98
2020-11-12 07:00:00 6 4 Norte 11 Norte 0 -- -- 98
2020-11-12 06:00:00 6.4 5 Noroeste 9 Norte 0 -- -- 98
2020-11-12 05:00:00 6.7 4 Noroeste 9 Noroeste 0 -- -- 98
2020-11-12 04:00:00 6.9 5 Norte 8 Norte 0 -- -- 98
2020-11-12 03:00:00 6.8 5 Noroeste 7 Noroeste 0 -- -- 98
2020-11-12 02:00:00 7 4 Norte 8 Norte 0 -- -- 97
2020-11-12 01:00:00 7.1 6 Norte 7 Norte 0 -- -- 96
2020-11-12 00:00:00 7.2 3 Oeste 6 Noroeste 0 -- -- 96
2020-11-11 23:00:00 7.4 5 Norte 9 Norte 0 -- -- 95
2020-11-11 22:00:00 7.9 5 Noroeste 13 Noroeste 0 -- -- 93
2020-11-11 21:00:00 8.5 9 Norte 14 Norte 0 -- -- 93
2020-11-11 20:00:00 9.8 6 Noroeste 11 Noroeste 0 -- -- 88
2020-11-11 19:00:00 10.8 5 Noroeste 12 Norte 0 -- -- 86
2020-11-11 18:00:00 12.5 4 Nordeste 14 Sudeste 0 -- -- 78
2020-11-11 17:00:00 14.1 14 Sudeste 19 Sudeste 0 -- -- 71
2020-11-11 16:00:00 16 15 Sudeste 19 Sudeste 0 -- -- 63
2020-11-11 15:00:00 17 13 Sudeste 16 Sudeste 0 -- -- 59
2020-11-11 14:00:00 16.7 8 Sudeste 12 Sudeste 0 -- -- 59
2020-11-11 13:00:00 14.9 5 Sudeste 8 Sudeste 0 -- -- 68
2020-11-11 12:00:00 12.7 4 Sudeste 8 Sudeste 0 -- -- 74
2020-11-11 11:00:00 10.4 4 Sudeste 8 Sudeste 0 -- -- 84
2020-11-11 10:00:00 7.9 2 Sur 8 Noroeste 0 -- -- 95
2020-11-11 09:00:00 4.5 5 Noroeste 8 Noroeste 0 -- -- 100
2020-11-11 08:00:00 4.2 3 Noroeste 9 Noroeste 0 -- -- 100
2020-11-11 07:00:00 4.4 7 Norte 9 Noroeste 0 -- -- 99
2020-11-11 06:00:00 4.8 5 Noroeste 8 Noroeste 0 -- -- 98
2020-11-11 05:00:00 5.1 6 Noroeste 9 Noroeste 0 -- -- 98
2020-11-11 04:00:00 5.1 7 Noroeste 13 Norte 0 -- -- 99
2020-11-11 03:00:00 5.9 5 Noroeste 11 Noroeste 0 -- -- 99
2020-11-11 02:00:00 6.3 4 Oeste 9 Noroeste 0 -- -- 98
2020-11-11 01:00:00 6.5 5 Noroeste 9 Norte 0 -- -- 97
2020-11-11 00:00:00 7.2 4 Oeste 11 Norte 0 -- -- 98
2020-11-10 23:00:00 7.7 6 Noroeste 9 Oeste 0 -- -- 96
2020-11-10 22:00:00 8.3 5 Noroeste 8 Noroeste 0 -- -- 96
2020-11-10 21:00:00 8.6 4 Noroeste 9 Oeste 0 -- -- 95
2020-11-10 20:00:00 9.5 7 Oeste 9 Oeste 0 -- -- 94
2020-11-10 19:00:00 10.8 2 Nordeste 13 Sudeste 0 -- -- 91
2020-11-10 18:00:00 11.9 11 Sudeste 18 Sudeste 0 -- -- 86
2020-11-10 17:00:00 14.3 16 Sudeste 21 Sudeste 0 -- -- 79
2020-11-10 16:00:00 16.4 14 Sudeste 16 Sudeste 0 -- -- 68
2020-11-10 15:00:00 17.2 12 Sudeste 16 Sudeste 0 -- -- 63
2020-11-10 14:00:00 16.7 10 Sudeste 12 Sudeste 0 -- -- 62
2020-11-10 13:00:00 15.9 5 Sudeste 8 Sudeste 0 -- -- 63
2020-11-10 12:00:00 12.9 3 Oeste 9 Sudeste 0 -- -- 74
2020-11-10 11:00:00 11 4 Sudeste 8 Este 0 -- -- 81
2020-11-10 10:00:00 8.2 0 Calma 6 Norte 0 -- -- 92
2020-11-10 09:00:00 6 0 Calma 8 Noroeste 0 -- -- 98
2020-11-10 08:00:00 4.9 3 Noroeste 10 Noroeste 0 -- -- 98
2020-11-10 07:00:00 5.3 4 Noroeste 13 Norte 0 -- -- 99
2020-11-10 06:00:00 5.2 8 Noroeste 14 Noroeste 0 -- -- 99
2020-11-10 05:00:00 5.4 9 Noroeste 12 Norte 0 -- -- 98
2020-11-10 04:00:00 5.8 7 Norte 12 Noroeste 0 -- -- 98
2020-11-10 03:00:00 6.5 9 Noroeste 13 Noroeste 0 -- -- 98
2020-11-10 02:00:00 6.8 8 Noroeste 13 Noroeste 0 -- -- 97
2020-11-10 01:00:00 7.7 5 Noroeste 13 Noroeste 0 -- -- 97
2020-11-10 00:00:00 7.9 11 Noroeste 15 Noroeste 0 -- -- 97
2020-11-09 23:00:00 8.9 5 Noroeste 12 Norte 0 -- -- 94
2020-11-09 22:00:00 9.5 5 Noroeste 11 Noroeste 0 -- -- 93
2020-11-09 21:00:00 10.2 10 Norte 12 Norte 0 -- -- 94
2020-11-09 20:00:00 11.6 7 Noroeste 10 Noroeste 0 -- -- 88
2020-11-09 19:00:00 13.1 3 Nordeste 9 Este 0 -- -- 83
2020-11-09 18:00:00 14 7 Sudeste 15 Este 0 -- -- 78
2020-11-09 17:00:00 15.2 10 Sudeste 12 Sudeste 0 -- -- 70
2020-11-09 16:00:00 15.9 10 Sudeste 15 Sudeste 0 -- -- 61
2020-11-09 15:00:00 17.4 10 Sudeste 13 Sudeste 0 -- -- 57
2020-11-09 14:00:00 17 9 Sudeste 12 Sudeste 0 -- -- 60
2020-11-09 13:00:00 15.5 4 Este 8 Este 0 -- -- 64
2020-11-09 12:00:00 13.1 3 Sudoeste 9 Sur 0 -- -- 72
2020-11-09 11:00:00 10.8 3 Sur 7 Este 0 -- -- 89
2020-11-09 10:00:00 6.9 2 Noroeste 6 Noroeste 0 -- -- 98
2020-11-09 09:00:00 6.1 3 Oeste 6 Noroeste 0 -- -- 97
2020-11-09 08:00:00 5.3 4 Noroeste 11 Noroeste 0 -- -- 97
2020-11-09 07:00:00 5.3 6 Norte 13 Norte 0 -- -- 98
2020-11-09 06:00:00 5.3 8 Noroeste 11 Noroeste 0 -- -- 100
2020-11-09 05:00:00 5.4 6 Noroeste 10 Noroeste 0 -- -- 100
2020-11-09 04:00:00 5.9 4 Noroeste 10 Noroeste 0 -- -- 98
2020-11-09 03:00:00 6.5 6 Noroeste 8 Noroeste 0 -- -- 98
2020-11-09 02:00:00 6.7 6 Noroeste 10 Noroeste 0 -- -- 97
2020-11-09 01:00:00 7.4 5 Oeste 11 Norte 0 -- -- 97
2020-11-09 00:00:00 7.8 4 Oeste 13 Norte 0 -- -- 97
2020-11-08 23:00:00 8.7 5 Noroeste 14 Norte 0 -- -- 94
2020-11-08 22:00:00 9.2 3 Noroeste 18 Norte 0 -- -- 94
2020-11-08 21:00:00 9.5 9 Noroeste 15 Noroeste 0 -- -- 94
2020-11-08 20:00:00 10 9 Norte 15 Norte 0 -- -- 95
2020-11-08 19:00:00 11.1 10 Noroeste 14 Norte 0 -- -- 92
2020-11-08 18:00:00 12.7 9 Oeste 12 Oeste 0 -- -- 90
2020-11-08 17:00:00 15.2 2 Norte 6 Sudoeste 0 -- -- 76
2020-11-08 16:00:00 15.6 3 Sur 6 Este 0 -- -- 71
2020-11-08 15:00:00 15.6 5 Sudeste 11 Sudeste 0 -- -- 73
2020-11-08 14:00:00 16.5 7 Sudeste 11 Sur 0 -- -- 68
2020-11-08 13:00:00 15.1 6 Sudeste 9 Sudeste 0 -- -- 78
2020-11-08 12:00:00 15 5 Sudeste 10 Sudeste 0 -- -- 77
2020-11-08 11:00:00 13.1 3 Oeste 9 Nordeste 0 -- -- 88
2020-11-08 10:00:00 10.6 2 Oeste 7 Norte 0 -- -- 100
2020-11-08 09:00:00 8.9 5 Noroeste 12 Noroeste 0 -- -- 100
2020-11-08 08:00:00 8.9 9 Noroeste 16 Norte 0 -- -- 100
2020-11-08 07:00:00 9.8 2 Noroeste 8 Norte 0 -- -- 100
2020-11-08 06:00:00 10.2 4 Oeste 8 Norte 0 -- -- 100
2020-11-08 05:00:00 10.2 6 Norte 7 Norte 0 -- -- 100
2020-11-08 04:00:00 10.4 5 Noroeste 6 Noroeste 0 -- -- 100
2020-11-08 03:00:00 10.7 4 Norte 4 Norte 0 -- -- 100
2020-11-08 02:00:00 10.9 2 Nordeste 4 Oeste 0 -- -- 100
2020-11-08 01:00:00 10.9 0 Calma 6 Nordeste 0 -- -- 100
2020-11-08 00:00:00 11.1 4 Sur 6 Sudeste 0 -- -- 100
2020-11-07 23:00:00 11.2 7 Sudeste 10 Sudeste 0.2 -- -- 100
2020-11-07 22:00:00 11.5 7 Sur 10 Sur 0.4 -- -- 99
2020-11-07 21:00:00 11.5 0 Calma 10 Nordeste 1.4 -- -- 100
2020-11-07 20:00:00 12 2 Nordeste 6 Oeste 0.2 -- -- 100
2020-11-07 19:00:00 12.2 4 Oeste 5 Oeste 1 -- -- 99
2020-11-07 18:00:00 12.4 4 Oeste 8 Sudeste 0 -- -- 98
2020-11-07 17:00:00 12.5 7 Sudeste 14 Sudeste 0 -- -- 98
2020-11-07 16:00:00 12.6 12 Sudeste 18 Sudeste 0 -- -- 98
2020-11-07 15:00:00 12.6 14 Sudeste 17 Sudeste 0 -- -- 99
2020-11-07 14:00:00 12.4 12 Sudeste 21 Sudeste 0.2 -- -- 99
2020-11-07 13:00:00 12.7 14 Sudeste 23 Sudeste 2.4 -- -- 98
2020-11-07 12:00:00 13.3 18 Sudeste 40 Sudeste 6 -- -- 97
2020-11-07 11:00:00 12.5 5 Oeste 23 Oeste 6.4 -- -- 100
2020-11-07 10:00:00 12.2 17 Oeste 22 Oeste 3.4 -- -- 98
2020-11-07 09:00:00 11.5 12 Noroeste 19 Oeste 2.2 -- -- 100
2020-11-07 08:00:00 11.6 4 Noroeste 9 Noroeste 0.4 -- -- 98
2020-11-07 07:00:00 11.6 4 Noroeste 13 Norte 0.2 -- -- 97
2020-11-07 06:00:00 11.8 4 Noroeste 14 Oeste 0.2 -- -- 96
2020-11-07 05:00:00 11.7 5 Noroeste 10 Noroeste 0 -- -- 96
2020-11-07 04:00:00 11.8 3 Noroeste 18 Norte 0 -- -- 96
2020-11-07 03:00:00 11.7 7 Oeste 18 Norte 0.2 -- -- 97
2020-11-07 02:00:00 11.7 8 Noroeste 14 Norte 0 -- -- 97
2020-11-07 01:00:00 11.8 5 Norte 14 Norte 0 -- -- 96
2020-11-07 00:00:00 11.9 7 Norte 15 Norte 0 -- -- 96
2020-11-06 23:00:00 12.1 8 Norte 15 Norte 0 -- -- 95
2020-11-06 22:00:00 12.4 6 Noroeste 13 Norte 0 -- -- 95
2020-11-06 21:00:00 12.5 4 Noroeste 13 Norte 0 -- -- 95
2020-11-06 20:00:00 13.1 6 Noroeste 10 Noroeste 0 -- -- 92
2020-11-06 19:00:00 13.8 7 Noroeste 10 Noroeste 0 -- -- 90
2020-11-06 18:00:00 14.5 7 Norte 9 Norte 0 -- -- 87
2020-11-06 17:00:00 15.5 2 Nordeste 6 Nordeste 0 -- -- 83
2020-11-06 16:00:00 16.1 2 Este 6 Nordeste 0 -- -- 77
2020-11-06 15:00:00 16.5 4 Oeste 9 Oeste 0 -- -- 77
2020-11-06 14:00:00 15.1 7 Oeste 10 Oeste 0 -- -- 83
2020-11-06 13:00:00 15.1 2 Oeste 5 Oeste 0 -- -- 86
2020-11-06 12:00:00 13.6 3 Sudeste 6 Sudoeste 0 -- -- 94
2020-11-06 11:00:00 12.5 0 Calma 6 Sudoeste 0 -- -- 97
2020-11-06 10:00:00 11.7 0 Calma 9 Norte 0 -- -- 99
2020-11-06 09:00:00 11.1 4 Nordeste 10 Oeste 0 -- -- 98
2020-11-06 08:00:00 10.9 5 Oeste 12 Noroeste 0 -- -- 98
2020-11-06 07:00:00 10.8 6 Noroeste 13 Norte 0 -- -- 99
2020-11-06 06:00:00 10.7 4 Noroeste 12 Norte 0 -- -- 99
2020-11-06 05:00:00 10.8 4 Noroeste 10 Noroeste 0 -- -- 99
2020-11-06 04:00:00 10.7 7 Norte 9 Norte 0.2 -- -- 99
2020-11-06 03:00:00 10.8 6 Oeste 9 Norte 0.2 -- -- 99
2020-11-06 02:00:00 11 7 Norte 10 Noroeste 0.6 -- -- 97
2020-11-06 01:00:00 11.2 4 Norte 10 Oeste 1.2 -- -- 96
2020-11-06 00:00:00 11.3 6 Oeste 13 Norte 0 -- -- 94
2020-11-05 23:00:00 11.4 7 Norte 9 Norte 0 -- -- 92
2020-11-05 22:00:00 11.5 4 Oeste 10 Norte 0 -- -- 93
2020-11-05 21:00:00 11.6 0 Calma 10 Norte 0 -- -- 91
2020-11-05 20:00:00 11.6 6 Norte 15 Norte 0 -- -- 90
2020-11-05 19:00:00 12.7 4 Este 11 Sudeste 0 -- -- 86
2020-11-05 18:00:00 14 4 Este 9 Este 0 -- -- 79
2020-11-05 17:00:00 15.2 7 Sudeste 10 Sudeste 0 -- -- 71
2020-11-05 16:00:00 16.3 4 Sur 12 Sudeste 0 -- -- 67
2020-11-05 15:00:00 17.3 8 Sudeste 10 Sudeste 0 -- -- 62
2020-11-05 14:00:00 17.3 4 Sudeste 10 Sudeste 0 -- -- 60
2020-11-05 13:00:00 16.4 5 Sudeste 12 Sur 0 -- -- 70
2020-11-05 12:00:00 14.3 4 Sudeste 10 Este 0 -- -- 75
2020-11-05 11:00:00 12.9 4 Sudeste 7 Sudoeste 0 -- -- 82
2020-11-05 10:00:00 10.4 2 Sudoeste 8 Noroeste 0 -- -- 91
2020-11-05 09:00:00 7.3 3 Oeste 9 Oeste 0 -- -- 100
2020-11-05 08:00:00 6.3 5 Noroeste 11 Noroeste 0 -- -- 100
2020-11-05 07:00:00 6.7 5 Oeste 12 Noroeste 0 -- -- 98
2020-11-05 06:00:00 7.1 7 Noroeste 9 Noroeste 0 -- -- 100
2020-11-05 05:00:00 7.5 2 Noroeste 6 Sudeste 0 -- -- 98
2020-11-05 04:00:00 7.9 8 Sudeste 14 Sudeste 0 -- -- 99
2020-11-05 03:00:00 8.5 2 Oeste 9 Noroeste 0 -- -- 96
2020-11-05 02:00:00 8.5 6 Noroeste 14 Norte 0 -- -- 97
2020-11-05 01:00:00 8.4 3 Noroeste 12 Noroeste 0 -- -- 97
2020-11-05 00:00:00 8.1 9 Norte 12 Norte 0 -- -- 99
2020-11-04 23:00:00 7.9 8 Noroeste 10 Noroeste 0 -- -- 100
2020-11-04 22:00:00 7.9 6 Norte 8 Noroeste 0 -- -- 99
2020-11-04 21:00:00 8.5 3 Oeste 8 Norte 0 -- -- 99
2020-11-04 20:00:00 8.6 5 Norte 6 Norte 0 -- -- 97
2020-11-04 19:00:00 8.9 2 Nordeste 13 Norte 0 -- -- 96
2020-11-04 18:00:00 9.1 11 Norte 13 Norte 0 -- -- 95
2020-11-04 17:00:00 9.9 3 Este 6 Sudeste 0 -- -- 94
2020-11-04 16:00:00 10.2 3 Sudeste 6 Sudeste 0 -- -- 93
2020-11-04 15:00:00 10.2 0 Calma 6 Sudoeste 0 -- -- 92
2020-11-04 14:00:00 9.8 3 Sudoeste 7 Este 0 -- -- 95
2020-11-04 13:00:00 9.1 2 Este 5 Este 0.2 -- -- 100
2020-11-04 12:00:00 8.6 0 Calma 5 Oeste 0.4 -- -- 100
2020-11-04 11:00:00 8.2 2 Sur 5 Sudeste 0.4 -- -- 100
2020-11-04 10:00:00 8 4 Sudeste 8 Sudeste 0.6 -- -- 100
2020-11-04 09:00:00 7.8 8 Sudeste 13 Sudeste 1.2 -- -- 100
2020-11-04 08:00:00 7.8 10 Sudeste 16 Sudeste 2 -- -- 100
2020-11-04 07:00:00 8.2 4 Este 10 Este 3.8 -- -- 99
2020-11-04 06:00:00 8.6 2 Oeste 4 Sudoeste 2.8 -- -- 99
2020-11-04 05:00:00 8.8 0 Calma 6 Nordeste 1 -- -- 99
2020-11-04 04:00:00 8.9 4 Sudeste 5 Sudeste 2.8 -- -- 99
2020-11-04 03:00:00 9.1 6 Oeste 10 Oeste 4.2 -- -- 98
2020-11-04 02:00:00 9.7 5 Noroeste 9 Norte 2.6 -- -- 98
2020-11-04 01:00:00 10.5 6 Noroeste 10 Oeste 5.2 -- -- 99
2020-11-04 00:00:00 11.1 2 Sudoeste 9 Norte 0.8 -- -- 97
2020-11-03 23:00:00 11.1 6 Oeste 8 Oeste 0 -- -- 95
2020-11-03 22:00:00 11.3 0 Calma 10 Oeste 0 -- -- 92
2020-11-03 21:00:00 11.6 3 Nordeste 15 Sudoeste 0 -- -- 92
2020-11-03 20:00:00 11.3 12 Oeste 18 Oeste 0 -- -- 94
2020-11-03 19:00:00 12.1 2 Noroeste 8 Oeste 0 -- -- 90
2020-11-03 18:00:00 12.5 3 Oeste 14 Oeste 0 -- -- 93
2020-11-03 17:00:00 13 4 Sudoeste 10 Sudeste 0 -- -- 97
2020-11-03 16:00:00 13.2 10 Sudeste 16 Sudeste 0 -- -- 96
2020-11-03 15:00:00 13.4 7 Sudeste 12 Sudoeste 0 -- -- 97
2020-11-03 14:00:00 12.9 4 Noroeste 9 Oeste 0.2 -- -- 97
2020-11-03 13:00:00 12.5 4 Norte 11 Oeste 1.2 -- -- 97
2020-11-03 12:00:00 12.9 5 Sudoeste 9 Oeste 0 -- -- 90
2020-11-03 11:00:00 12.9 8 Sudeste 10 Sudeste 0 -- -- 89
2020-11-03 10:00:00 11.6 2 Este 5 Este 0 -- -- 93
2020-11-03 09:00:00 11 2 Nordeste 6 Noroeste 0 -- -- 96
2020-11-03 08:00:00 10.4 3 Nordeste 7 Este 0 -- -- 95
2020-11-03 07:00:00 10.3 6 Sudeste 9 Sudeste 0 -- -- 96
2020-11-03 06:00:00 10.8 3 Oeste 11 Noroeste 0 -- -- 93
2020-11-03 05:00:00 10.6 4 Norte 6 Norte 0 -- -- 95
2020-11-03 04:00:00 10.9 5 Noroeste 13 Oeste 0 -- -- 92
2020-11-03 03:00:00 11.1 5 Noroeste 10 Noroeste 0 -- -- 93
2020-11-03 02:00:00 11.2 5 Noroeste 12 Noroeste 0 -- -- 92
2020-11-03 01:00:00 12 7 Noroeste 13 Norte 0 -- -- 90
2020-11-03 00:00:00 12.7 5 Noroeste 14 Noroeste 0 -- -- 87
2020-11-02 23:00:00 13.5 8 Noroeste 15 Noroeste 0 -- -- 84
2020-11-02 22:00:00 14 9 Noroeste 13 Norte 0 -- -- 82
2020-11-02 21:00:00 14.2 7 Noroeste 11 Noroeste 0 -- -- 82
2020-11-02 20:00:00 15.1 7 Noroeste 15 Noroeste 0 -- -- 79
2020-11-02 19:00:00 16.7 9 Noroeste 15 Noroeste 0 -- -- 73
2020-11-02 18:00:00 19.4 6 Nordeste 17 Sudeste 0 -- -- 62
2020-11-02 17:00:00 22 14 Sudeste 17 Sudeste 0 -- -- 53
2020-11-02 16:00:00 22.6 13 Sudeste 15 Sudeste 0 -- -- 51
2020-11-02 15:00:00 23 10 Sudeste 14 Sudeste 0 -- -- 51
2020-11-02 14:00:00 22.2 9 Sudeste 13 Sudeste 0 -- -- 52
2020-11-02 13:00:00 21.2 4 Sudeste 8 Sudeste 0 -- -- 56
2020-11-02 12:00:00 18.6 3 Este 7 Este 0 -- -- 64
2020-11-02 11:00:00 15.9 2 Sudoeste 6 Sudoeste 0 -- -- 74
2020-11-02 10:00:00 12.5 2 Sur 5 Norte 0 -- -- 84
2020-11-02 09:00:00 9.8 4 Oeste 9 Norte 0 -- -- 92
2020-11-02 08:00:00 8.4 8 Noroeste 12 Noroeste 0 -- -- 95
2020-11-02 07:00:00 8.1 0 Calma 7 Norte 0 -- -- 96
2020-11-02 06:00:00 8.5 0 Calma 9 Noroeste 0 -- -- 93
2020-11-02 05:00:00 8.7 7 Noroeste 14 Noroeste 0 -- -- 94
2020-11-02 04:00:00 8.8 7 Noroeste 12 Noroeste 0 -- -- 94
2020-11-02 03:00:00 9 5 Norte 8 Norte 0 -- -- 91
2020-11-02 02:00:00 10.4 3 Noroeste 14 Noroeste 0 -- -- 88
2020-11-02 01:00:00 10.5 8 Noroeste 14 Norte 0 -- -- 86
2020-11-02 00:00:00 10.6 10 Norte 15 Norte 0 -- -- 86
2020-11-01 23:00:00 11.7 8 Noroeste 13 Noroeste 0 -- -- 84
2020-11-01 22:00:00 11.8 8 Noroeste 16 Norte 0 -- -- 84
2020-11-01 21:00:00 12.8 8 Noroeste 13 Noroeste 0 -- -- 79
2020-11-01 20:00:00 13.6 8 Noroeste 14 Noroeste 0 -- -- 78
2020-11-01 19:00:00 14.8 9 Noroeste 14 Noroeste 0 -- -- 75
2020-11-01 18:00:00 16.9 9 Noroeste 13 Noroeste 0 -- -- 67
2020-11-01 17:00:00 19.9 8 Sudeste 11 Sudeste 0 -- -- 56
2020-11-01 16:00:00 21.1 6 Sudeste 12 Sudeste 0 -- -- 52
2020-11-01 15:00:00 21.2 10 Sudeste 14 Sudeste 0 -- -- 49
2020-11-01 14:00:00 19.7 7 Sudeste 11 Sudeste 0 -- -- 46
2020-11-01 13:00:00 19.1 5 Sudeste 9 Sudeste 0 -- -- 49
2020-11-01 12:00:00 16 3 Este 9 Este 0 -- -- 61
2020-11-01 11:00:00 13.8 3 Sur 8 Este 0 -- -- 63
2020-11-01 10:00:00 11.1 2 Sudeste 7 Noroeste 0 -- -- 78
2020-11-01 09:00:00 7.6 4 Norte 7 Norte 0 -- -- 88
2020-11-01 08:00:00 5.9 4 Norte 8 Noroeste 0 -- -- 93
2020-11-01 07:00:00 6 5 Norte 12 Noroeste 0 -- -- 90
2020-11-01 06:00:00 6.4 7 Noroeste 17 Noroeste 0 -- -- 89
2020-11-01 05:00:00 6.1 5 Noroeste 11 Norte 0 -- -- 91
2020-11-01 04:00:00 7.6 5 Norte 9 Norte 0 -- -- 85
2020-11-01 03:00:00 7.6 5 Norte 13 Norte 0 -- -- 86
2020-11-01 02:00:00 8.5 7 Noroeste 15 Noroeste 0 -- -- 81
2020-11-01 01:00:00 9.3 6 Noroeste 15 Noroeste 0 -- -- 80
2020-11-01 00:00:00 9.3 11 Noroeste 15 Norte 0 -- -- 82
2020-10-31 23:00:00 9.7 8 Noroeste 14 Noroeste 0 -- -- 81
2020-10-31 22:00:00 10.6 10 Noroeste 16 Norte 0 -- -- 79
2020-10-31 21:00:00 12 6 Noroeste 13 Noroeste 0 -- -- 75
2020-10-31 20:00:00 12.7 6 Noroeste 15 Oeste 0 -- -- 74
2020-10-31 19:00:00 14.6 8 Norte 17 Noroeste 0 -- -- 68
2020-10-31 18:00:00 17.2 9 Noroeste 15 Norte 0 -- -- 60
2020-10-31 17:00:00 22.2 3 Sudeste 10 Sudeste 0 -- -- 45
2020-10-31 16:00:00 22.1 8 Sudeste 11 Sur 0 -- -- 45
2020-10-31 15:00:00 21.9 6 Sudeste 12 Sur 0 -- -- 46
2020-10-31 14:00:00 21.1 4 Sudeste 7 Sudeste 0 -- -- 43
2020-10-31 13:00:00 18.6 3 Este 8 Este 0 -- -- 46
2020-10-31 12:00:00 16.8 4 Sudeste 8 Sudeste 0 -- -- 48
2020-10-31 11:00:00 13.4 4 Sudeste 6 Sudeste 0 -- -- 68
2020-10-31 10:00:00 9.9 0 Calma 5 Oeste 0 -- -- 77
2020-10-31 09:00:00 7 3 Noroeste 9 Noroeste 0 -- -- 84
2020-10-31 08:00:00 5.5 3 Noroeste 12 Noroeste 0 -- -- 88
2020-10-31 07:00:00 5.7 4 Noroeste 11 Noroeste 0 -- -- 87
2020-10-31 06:00:00 5.5 7 Noroeste 13 Noroeste 0 -- -- 91
2020-10-31 05:00:00 6.4 6 Noroeste 14 Noroeste 0 -- -- 90
2020-10-31 04:00:00 7.1 4 Oeste 16 Noroeste 0 -- -- 89
2020-10-31 03:00:00 7.6 6 Noroeste 12 Norte 0 -- -- 89
2020-10-31 02:00:00 7.6 6 Noroeste 13 Noroeste 0 -- -- 88
2020-10-31 01:00:00 8.3 7 Noroeste 14 Noroeste 0 -- -- 86
2020-10-31 00:00:00 8.8 8 Noroeste 13 Noroeste 0 -- -- 85
2020-10-30 23:00:00 9.8 10 Noroeste 19 Norte 0 -- -- 83
2020-10-30 22:00:00 9.9 12 Norte 18 Norte 0 -- -- 85
2020-10-30 21:00:00 11.3 8 Noroeste 15 Norte 0 -- -- 80
2020-10-30 20:00:00 12.5 9 Noroeste 14 Noroeste 0 -- -- 77
2020-10-30 19:00:00 14.1 7 Noroeste 19 Norte 0 -- -- 72
2020-10-30 18:00:00 16.7 8 Noroeste 11 Noroeste 0 -- -- 64
2020-10-30 17:00:00 21 5 Sudeste 8 Sudeste 0 -- -- 51
2020-10-30 16:00:00 21.7 5 Sudeste 10 Sudeste 0 -- -- 48
2020-10-30 15:00:00 21.2 8 Sudeste 10 Sudeste 0 -- -- 48
2020-10-30 14:00:00 20 6 Sudeste 10 Sudeste 0 -- -- 46
2020-10-30 13:00:00 18.1 4 Sudeste 8 Este 0 -- -- 55
2020-10-30 12:00:00 15.7 5 Este 8 Este 0 -- -- 63
2020-10-30 11:00:00 12.9 3 Sudoeste 6 Sudoeste 0 -- -- 75
2020-10-30 10:00:00 9.8 0 Calma 6 Noroeste 0 -- -- 86
2020-10-30 09:00:00 7 0 Calma 8 Noroeste 0 -- -- 94
2020-10-30 08:00:00 5.4 5 Norte 8 Norte 0 -- -- 98
2020-10-30 07:00:00 6.2 6 Noroeste 10 Noroeste 0 -- -- 96
2020-10-30 06:00:00 6.4 4 Oeste 12 Noroeste 0 -- -- 98
2020-10-30 05:00:00 6.7 5 Noroeste 15 Noroeste 0 -- -- 97
2020-10-30 04:00:00 6.3 9 Noroeste 12 Noroeste 0 -- -- 99
2020-10-30 03:00:00 7.1 0 Calma 9 Sudeste 0 -- -- 97
2020-10-30 02:00:00 8 2 Oeste 14 Norte 0 -- -- 95
2020-10-30 01:00:00 8.7 6 Noroeste 13 Noroeste 0 -- -- 94
2020-10-30 00:00:00 8.8 8 Noroeste 16 Noroeste 0 -- -- 95
2020-10-29 23:00:00 9.3 5 Oeste 16 Norte 0 -- -- 93
2020-10-29 22:00:00 10.2 5 Noroeste 11 Noroeste 0 -- -- 89
2020-10-29 21:00:00 11 5 Noroeste 12 Oeste 0 -- -- 87
2020-10-29 20:00:00 11.7 9 Oeste 14 Noroeste 0 -- -- 85
2020-10-29 19:00:00 13.3 7 Noroeste 12 Norte 0 -- -- 79
2020-10-29 18:00:00 15.7 6 Sudeste 19 Sudeste 0 -- -- 66
2020-10-29 17:00:00 17.9 12 Sudeste 17 Sudeste 0 -- -- 60
2020-10-29 16:00:00 18.8 12 Sudeste 14 Sudeste 0 -- -- 58
2020-10-29 15:00:00 19 9 Sudeste 12 Sudeste 0 -- -- 54
2020-10-29 14:00:00 18.4 6 Sudeste 10 Sudeste 0 -- -- 56
2020-10-29 13:00:00 17.4 4 Sudeste 9 Sur 0 -- -- 59
2020-10-29 12:00:00 15.5 6 Sudeste 10 Sudeste 0 -- -- 66
2020-10-29 11:00:00 13.1 5 Sudeste 9 Sudeste 0 -- -- 74
2020-10-29 10:00:00 10.1 3 Este 5 Sudeste 0 -- -- 88
2020-10-29 09:00:00 7.1 3 Noroeste 9 Noroeste 0 -- -- 96
2020-10-29 08:00:00 5.9 4 Noroeste 12 Noroeste 0 -- -- 98
2020-10-29 07:00:00 6.5 8 Noroeste 14 Noroeste 0 -- -- 97
2020-10-29 06:00:00 6.8 3 Noroeste 8 Noroeste 0 -- -- 95
2020-10-29 05:00:00 6.9 6 Noroeste 15 Norte 0 -- -- 94
2020-10-29 04:00:00 7 10 Norte 14 Norte 0 -- -- 96
2020-10-29 03:00:00 7.4 6 Noroeste 12 Noroeste 0 -- -- 95
2020-10-29 02:00:00 7.4 10 Norte 14 Norte 0 -- -- 95
2020-10-29 01:00:00 8.4 6 Noroeste 19 Norte 0 -- -- 92
2020-10-29 00:00:00 9 12 Norte 18 Norte 0 -- -- 90
2020-10-28 23:00:00 9.2 7 Norte 15 Norte 0 -- -- 90
2020-10-28 22:00:00 10.1 7 Noroeste 18 Noroeste 0 -- -- 88
2020-10-28 21:00:00 11 8 Noroeste 17 Norte 0 -- -- 86
2020-10-28 20:00:00 12 14 Norte 18 Norte 0 -- -- 83
2020-10-28 19:00:00 14.1 3 Oeste 13 Oeste 0 -- -- 68
2020-10-28 18:00:00 16.1 8 Oeste 16 Oeste 0 -- -- 60
2020-10-28 17:00:00 19.1 7 Sudoeste 13 Oeste 0 -- -- 54
2020-10-28 16:00:00 18.9 8 Sudeste 21 Sudeste 0 -- -- 58
2020-10-28 15:00:00 18.3 16 Sudeste 20 Sudeste 0 -- -- 61
2020-10-28 14:00:00 17.6 13 Sudeste 20 Sudeste 0 -- -- 63
2020-10-28 13:00:00 16.2 15 Sudeste 19 Sudeste 0 -- -- 67
2020-10-28 12:00:00 15.3 4 Sudeste 8 Sudeste 0 -- -- 69
2020-10-28 11:00:00 11.9 3 Oeste 8 Este 0 -- -- 78
2020-10-28 10:00:00 9.1 3 Sudeste 9 Noroeste 0 -- -- 91
2020-10-28 09:00:00 6.3 6 Noroeste 8 Noroeste 0 -- -- 99
2020-10-28 08:00:00 5.2 2 Norte 7 Norte 0 -- -- 98
2020-10-28 07:00:00 5.3 4 Noroeste 8 Oeste 0 -- -- 98
2020-10-28 06:00:00 5.4 5 Norte 10 Noroeste 0 -- -- 98
2020-10-28 05:00:00 5.1 9 Norte 14 Nordeste 0 -- -- 98
2020-10-28 04:00:00 5.5 6 Oeste 10 Oeste 0 -- -- 97
2020-10-28 03:00:00 6.1 5 Norte 10 Noroeste 0 -- -- 94
2020-10-28 02:00:00 6.1 5 Noroeste 12 Norte 0 -- -- 95
2020-10-28 01:00:00 6.7 7 Norte 14 Noroeste 0 -- -- 93
2020-10-28 00:00:00 7 5 Noroeste 13 Noroeste 0 -- -- 92
2020-10-27 23:00:00 7.7 7 Noroeste 11 Noroeste 0 -- -- 89
2020-10-27 22:00:00 8.3 5 Norte 12 Norte 0 -- -- 89
2020-10-27 21:00:00 9.2 7 Norte 11 Norte 0 -- -- 87
2020-10-27 20:00:00 9.9 6 Noroeste 16 Noroeste 0 -- -- 82
2020-10-27 19:00:00 10.8 13 Oeste 17 Oeste 0 -- -- 73
2020-10-27 18:00:00 13.2 3 Oeste 11 Sudoeste 0 -- -- 64
2020-10-27 17:00:00 15.1 8 Sudeste 17 Sudeste 0 -- -- 56
2020-10-27 16:00:00 15.3 13 Sudeste 21 Sudeste 0 -- -- 59
2020-10-27 15:00:00 15.1 13 Sudeste 21 Sudeste 0 -- -- 57
2020-10-27 14:00:00 14.7 8 Sudeste 12 Sudeste 0 -- -- 58
2020-10-27 13:00:00 13 4 Nordeste 11 Sur 0 -- -- 63
2020-10-27 12:00:00 10.8 5 Sudoeste 9 Oeste 0 -- -- 75
2020-10-27 11:00:00 7.6 2 Nordeste 8 Oeste 0 -- -- 84
2020-10-27 10:00:00 5.8 3 Sudoeste 8 Norte 0 -- -- 92
2020-10-27 09:00:00 3.7 4 Noroeste 7 Noroeste 0 -- -- 97
2020-10-27 08:00:00 2.3 3 Noroeste 9 Noroeste 0 -- -- 98
2020-10-27 07:00:00 2.1 7 Norte 12 Noroeste 0 -- -- 97
2020-10-27 06:00:00 2.5 4 Noroeste 10 Oeste 0 -- -- 96
2020-10-27 05:00:00 2.2 9 Norte 13 Noroeste 0 -- -- 97
2020-10-27 04:00:00 2.5 6 Norte 17 Norte 0 -- -- 96
2020-10-27 03:00:00 2.8 8 Noroeste 13 Norte 0 -- -- 94
2020-10-27 02:00:00 3.1 10 Norte 18 Norte 0 -- -- 95
2020-10-27 01:00:00 3.7 6 Oeste 19 Norte 0 -- -- 92
2020-10-27 00:00:00 4.2 13 Norte 16 Norte 0 -- -- 91